Time;durP1;ratioP1;P1;durP2;ratioP2;P2;SDS_P1;SDS_P2;PMS_P1;PMS_P2;Temp;Humidity;BMP_temperature;BMP_pressure;BME280_temperature;BME280_humidity;BME280_pressure;Samples;Min_cycle;Max_cycle;Signal;HPM_P1;HPM_P2
2022/01/14 00:01:12;;;;;;;1.30;1.13;;;8.70;61.00;;;;;;4988730;28;20045;-86
2022/01/14 00:03:38;;;;;;;1.33;1.00;;;8.70;61.10;;;;;;5005689;28;20037;-85
2022/01/14 00:06:04;;;;;;;1.88;1.10;;;8.70;61.60;;;;;;5007159;28;20022;-86
2022/01/14 00:08:30;;;;;;;1.83;1.48;;;8.70;61.10;;;;;;5006593;28;20085;-86
2022/01/14 00:10:58;;;;;;;2.13;1.08;;;8.70;61.00;;;;;;5007357;28;20515;-86
2022/01/14 00:16:09;;;;;;;1.27;1.13;;;8.70;61.00;;;;;;5006696;28;20026;-86
2022/01/14 00:18:35;;;;;;;1.83;1.20;;;8.70;61.00;;;;;;5006480;28;20044;-86
2022/01/14 00:21:01;;;;;;;2.13;1.10;;;8.70;61.00;;;;;;5006643;28;20080;-85
2022/01/14 00:23:32;;;;;;;1.20;1.10;;;8.70;61.00;;;;;;5007352;28;20052;-86
2022/01/14 00:34:13;;;;;;;1.45;1.08;;;8.70;60.90;;;;;;5009260;28;20041;-85
2022/01/14 00:36:40;;;;;;;1.45;0.82;;;8.70;60.90;;;;;;5012739;28;20063;-87
2022/01/14 00:39:09;;;;;;;1.10;0.90;;;8.70;60.90;;;;;;5008328;28;20040;-87
2022/01/14 00:41:36;;;;;;;0.90;0.80;;;8.80;60.90;;;;;;5021103;28;20042;-86
2022/01/14 00:44:08;;;;;;;0.65;0.65;;;8.80;60.90;;;;;;5006882;28;20041;-87
2022/01/14 00:46:34;;;;;;;1.05;0.90;;;8.80;60.80;;;;;;5003740;28;20037;-84
2022/01/14 00:49:01;;;;;;;2.33;0.98;;;8.80;60.90;;;;;;5021318;28;20077;-87
2022/01/14 00:51:27;;;;;;;1.00;0.90;;;8.80;60.80;;;;;;5004188;28;20041;-86
2022/01/14 00:53:53;;;;;;;1.13;0.88;;;8.70;60.80;;;;;;5007458;28;20034;-86
2022/01/14 00:59:15;;;;;;;1.02;0.73;;;8.80;60.90;;;;;;4944628;29;20087;-85
2022/01/14 01:01:51;;;;;;;;;;;8.80;61.10;;;;;;4945033;29;20556;-84
2022/01/14 01:04:30;;;;;;;1.42;1.00;;;8.80;61.20;;;;;;4942729;29;19953;-85
2022/01/14 01:06:58;;;;;;;1.13;0.70;;;8.80;61.30;;;;;;4944862;29;20066;-85
2022/01/14 01:09:25;;;;;;;0.82;0.70;;;8.80;61.40;;;;;;4924406;29;20027;-86
2022/01/14 01:12:10;;;;;;;0.82;0.82;;;8.80;61.50;;;;;;4923898;29;20462;-86
2022/01/14 01:14:50;;;;;;;0.68;0.68;;;8.80;61.60;;;;;;4914366;29;20547;-86
2022/01/14 01:17:17;;;;;;;0.98;0.90;;;8.80;61.80;;;;;;4922550;29;20055;-86
2022/01/14 01:19:44;;;;;;;2.63;0.80;;;8.90;61.70;;;;;;4914032;29;20031;-88
2022/01/14 01:22:10;;;;;;;1.00;0.73;;;8.90;61.80;;;;;;4923656;29;20502;-85
2022/01/14 01:24:48;;;;;;;0.75;0.65;;;8.90;61.70;;;;;;4945228;29;20058;-87
2022/01/14 01:27:16;;;;;;;0.80;0.60;;;8.90;61.80;;;;;;4945313;29;20945;-85
2022/01/14 01:29:49;;;;;;;0.68;0.65;;;8.90;61.90;;;;;;4945921;29;20043;-86
2022/01/14 01:32:15;;;;;;;2.22;0.70;;;8.90;62.00;;;;;;4936968;29;20039;-85
2022/01/14 01:34:41;;;;;;;1.00;0.70;;;8.90;61.90;;;;;;4944062;28;20074;-85
2022/01/14 01:37:07;;;;;;;1.25;0.40;;;8.90;62.00;;;;;;5001846;28;20041;-86
2022/01/14 01:39:35;;;;;;;0.50;0.50;;;8.90;62.00;;;;;;5020721;28;20060;-87
2022/01/14 01:42:07;;;;;;;0.65;0.60;;;8.90;61.90;;;;;;5020568;28;20112;-86
2022/01/14 01:44:35;;;;;;;0.50;0.50;;;8.90;61.90;;;;;;5010065;28;20408;-84
2022/01/14 01:47:02;;;;;;;0.45;0.40;;;8.90;61.90;;;;;;5006724;28;20049;-85
2022/01/14 01:49:32;;;;;;;1.20;0.70;;;8.90;61.80;;;;;;5003091;28;20038;-84
2022/01/14 01:51:59;;;;;;;0.45;0.40;;;8.90;61.80;;;;;;5005482;28;20144;-83
2022/01/14 01:54:27;;;;;;;0.40;0.40;;;9.00;61.80;;;;;;4988525;28;20038;-83
2022/01/14 01:56:53;;;;;;;0.40;0.40;;;8.90;61.70;;;;;;5005452;28;20030;-84
2022/01/14 01:59:21;;;;;;;0.38;0.38;;;9.00;61.80;;;;;;4985964;28;20053;-84
2022/01/14 02:01:48;;;;;;;0.63;0.50;;;9.00;61.80;;;;;;4988377;28;20033;-82
2022/01/14 02:04:14;;;;;;;0.40;0.40;;;8.90;61.70;;;;;;5005355;28;20035;-83
2022/01/14 02:06:41;;;;;;;0.47;0.47;;;9.00;61.80;;;;;;5006312;28;20092;-83
2022/01/14 02:09:08;;;;;;;0.50;0.30;;;8.90;61.70;;;;;;4987536;28;20131;-84
2022/01/14 02:11:34;;;;;;;0.28;0.28;;;9.00;61.80;;;;;;5006145;28;20164;-84
2022/01/14 02:14:05;;;;;;;0.57;0.40;;;9.00;61.80;;;;;;5019725;28;20045;-84
2022/01/14 02:16:57;;;;;;;0.30;0.30;;;9.00;62.50;;;;;;5005572;28;20107;-84
2022/01/14 02:19:30;;;;;;;0.90;0.35;;;9.00;61.90;;;;;;5005841;28;20062;-84
2022/01/14 02:22:10;;;;;;;0.70;0.40;;;9.00;62.10;;;;;;5005595;28;20630;-84
2022/01/14 02:27:09;;;;;;;0.98;0.30;;;9.00;62.40;;;;;;5005466;28;20501;-84
2022/01/14 02:29:35;;;;;;;1.27;0.30;;;9.00;62.50;;;;;;5005555;28;20076;-83
2022/01/14 02:32:04;;;;;;;1.10;0.45;;;9.00;62.60;;;;;;5006105;28;20550;-84
2022/01/14 02:34:30;;;;;;;0.45;0.40;;;9.10;62.70;;;;;;5024379;28;20048;-84
2022/01/14 02:36:57;;;;;;;0.57;0.38;;;9.10;62.90;;;;;;5012234;28;20029;-84
2022/01/14 02:39:23;;;;;;;0.82;0.30;;;9.10;62.80;;;;;;5003570;28;20048;-84
2022/01/14 02:41:51;;;;;;;0.30;0.30;;;9.10;62.80;;;;;;4987681;28;20030;-85
2022/01/14 02:44:27;;;;;;;2.10;0.70;;;9.10;62.80;;;;;;5004057;28;20519;-85
2022/01/14 02:46:59;;;;;;;0.20;0.20;;;9.10;62.80;;;;;;5004148;28;20030;-84
2022/01/14 02:49:30;;;;;;;1.30;0.38;;;9.10;62.90;;;;;;4988010;28;20046;-85
2022/01/14 02:51:57;;;;;;;1.55;0.40;;;9.10;63.00;;;;;;5019775;28;20524;-84
2022/01/14 02:54:33;;;;;;;1.42;0.35;;;9.10;62.90;;;;;;5005957;28;20403;-86
2022/01/14 02:57:02;;;;;;;0.88;0.30;;;9.10;62.80;;;;;;5004467;28;20029;-84
2022/01/14 02:59:31;;;;;;;1.48;0.43;;;9.10;62.90;;;;;;5003580;28;20451;-86
2022/01/14 03:02:01;;;;;;;0.68;0.28;;;9.10;62.80;;;;;;5002780;28;20034;-86
2022/01/14 03:04:28;;;;;;;0.30;0.22;;;9.20;62.90;;;;;;5005678;28;20034;-86
2022/01/14 03:06:54;;;;;;;0.88;0.35;;;9.20;62.90;;;;;;5008709;28;20034;-86
2022/01/14 03:09:20;;;;;;;0.30;0.30;;;9.20;62.90;;;;;;4987746;28;20040;-87
2022/01/14 03:11:48;;;;;;;0.32;0.32;;;9.10;63.30;;;;;;5009916;28;20029;-87
2022/01/14 03:14:23;;;;;;;0.30;0.22;;;9.20;62.80;;;;;;5008857;28;20046;-87
2022/01/14 03:16:55;;;;;;;0.20;0.20;;;9.20;62.80;;;;;;5007765;28;20108;-86
2022/01/14 03:19:25;;;;;;;1.00;0.30;;;9.20;62.80;;;;;;4991177;28;20034;-89
2022/01/14 03:21:56;;;;;;;0.20;0.20;;;9.20;62.70;;;;;;5008944;28;20034;-88
2022/01/14 03:25:36;;;;;;;0.73;0.30;;;9.20;62.70;;;;;;4987734;28;20026;-89
2022/01/14 03:27:08;;;;;;;0.35;0.30;;;9.20;62.60;;;;;;5007253;28;20084;-91
2022/01/14 03:29:34;;;;;;;0.47;0.20;;;9.20;62.60;;;;;;5025740;28;20467;-91
2022/01/14 03:32:01;;;;;;;0.13;0.13;;;9.20;62.80;;;;;;4992035;28;20088;-92
2022/01/14 03:34:27;;;;;;;1.83;0.20;;;9.20;62.80;;;;;;5009766;28;20129;-92
2022/01/14 03:36:53;;;;;;;0.73;0.40;;;9.20;63.00;;;;;;5007112;28;20124;-90
2022/01/14 03:39:19;;;;;;;0.30;0.20;;;9.20;63.00;;;;;;5007029;28;20088;-88
2022/01/14 03:41:45;;;;;;;2.58;0.30;;;9.20;63.10;;;;;;5008663;28;20038;-91
2022/01/14 03:44:11;;;;;;;0.22;0.20;;;9.30;63.20;;;;;;5011583;28;20026;-89
2022/01/14 03:46:37;;;;;;;0.88;0.45;;;9.30;63.30;;;;;;5012293;28;20122;-92
2022/01/14 03:49:04;;;;;;;1.05;0.30;;;9.30;63.40;;;;;;4996132;28;20128;-92
2022/01/14 03:51:30;;;;;;;0.70;0.32;;;9.30;63.70;;;;;;5016591;28;20050;-93
2022/01/14 03:53:56;;;;;;;0.82;0.28;;;9.30;63.70;;;;;;4993838;28;20065;-89
2022/01/14 03:56:23;;;;;;;1.83;0.38;;;9.30;63.80;;;;;;5009300;28;20037;-90
2022/01/14 03:58:49;;;;;;;0.25;0.25;;;9.30;63.70;;;;;;5014369;28;20032;-92
2022/01/14 04:01:15;;;;;;;0.30;0.20;;;9.30;63.90;;;;;;5012529;28;20084;-88
2022/01/14 04:03:42;;;;;;;0.70;0.30;;;9.40;64.00;;;;;;5034185;28;20030;-87
2022/01/14 04:06:10;;;;;;;0.40;0.20;;;9.40;64.10;;;;;;5028294;28;20045;-89
2022/01/14 04:08:37;;;;;;;1.23;0.30;;;9.40;63.80;;;;;;4993053;28;20030;-90
2022/01/14 04:11:04;;;;;;;0.35;0.28;;;9.40;63.90;;;;;;5025101;28;20137;-90
2022/01/14 04:16:03;;;;;;;0.52;0.40;;;9.40;63.90;;;;;;5009830;28;20030;-91
2022/01/14 04:18:29;;;;;;;0.47;0.20;;;9.40;63.90;;;;;;5010545;28;20098;-91
2022/01/14 04:20:55;;;;;;;0.43;0.38;;;9.40;63.80;;;;;;4993492;28;20037;-90
2022/01/14 04:23:23;;;;;;;1.00;0.30;;;9.40;63.80;;;;;;4992659;28;20032;-92
2022/01/14 04:25:53;;;;;;;0.45;0.30;;;9.40;63.70;;;;;;4991003;28;20390;-90
2022/01/14 04:28:24;;;;;;;1.75;0.30;;;9.40;63.80;;;;;;5010945;28;20038;-91
2022/01/14 04:30:55;;;;;;;0.47;0.22;;;9.40;63.70;;;;;;5026056;28;20121;-93
2022/01/14 04:33:25;;;;;;;0.30;0.30;;;9.40;63.60;;;;;;4993496;28;20129;-91
2022/01/14 04:35:58;;;;;;;0.25;0.20;;;9.40;63.60;;;;;;5009548;28;20034;-92
2022/01/14 04:38:25;;;;;;;0.50;0.20;;;9.40;63.60;;;;;;5009865;28;20428;-93
2022/01/14 04:40:52;;;;;;;0.30;0.30;;;9.40;63.60;;;;;;4994094;28;20034;-95
2022/01/14 04:43:20;;;;;;;0.63;0.40;;;9.40;63.70;;;;;;5009261;28;20041;-90
2022/01/14 04:48:26;;;;;;;1.05;0.30;;;9.40;63.60;;;;;;5025310;28;20496;-91
2022/01/14 04:50:53;;;;;;;1.20;0.30;;;9.40;63.70;;;;;;4990446;28;20041;-92
2022/01/14 04:53:21;;;;;;;1.67;0.45;;;9.40;63.80;;;;;;5002814;28;20463;-91
2022/01/14 04:55:47;;;;;;;1.85;0.30;;;9.40;63.90;;;;;;5005510;28;20072;-92
2022/01/14 04:58:13;;;;;;;4.10;0.40;;;9.50;64.00;;;;;;5005932;28;20029;-92
2022/01/14 05:00:39;;;;;;;0.38;0.30;;;9.50;64.20;;;;;;4988466;28;20029;-88
2022/01/14 05:03:07;;;;;;;2.10;0.25;;;9.50;64.10;;;;;;5008296;28;20121;-92
2022/01/14 05:05:39;;;;;;;0.40;0.40;;;9.50;64.40;;;;;;4988650;28;20423;-96
2022/01/14 05:08:10;;;;;;;3.95;0.52;;;9.50;64.60;;;;;;5006175;28;20030;-92
2022/01/14 05:10:49;;;;;;;0.85;0.40;;;9.50;64.70;;;;;;5007581;28;20049;-87
2022/01/14 05:13:15;;;;;;;1.75;0.40;;;9.50;64.70;;;;;;5007840;28;20065;-87
2022/01/14 05:15:41;;;;;;;2.30;0.55;;;9.50;64.80;;;;;;5008360;28;20034;-91
2022/01/14 05:18:07;;;;;;;1.08;0.40;;;9.60;64.90;;;;;;5011487;28;20021;-90
2022/01/14 05:20:33;;;;;;;1.15;0.30;;;9.50;64.80;;;;;;5599459;23;20840;-87
2022/01/14 05:22:59;;;;;;;0.95;0.57;;;9.60;64.80;;;;;;5042521;28;20067;-90
2022/01/14 05:25:25;;;;;;;0.85;0.30;;;9.50;64.80;;;;;;5024734;28;20029;-92
2022/01/14 05:27:51;;;;;;;2.35;0.55;;;9.50;64.70;;;;;;5016874;28;20505;-91
2022/01/14 05:30:17;;;;;;;1.60;0.43;;;9.60;64.80;;;;;;5006279;28;20116;-91
2022/01/14 05:32:48;;;;;;;1.45;0.38;;;9.60;64.90;;;;;;5038959;28;20010;-90
2022/01/14 05:35:16;;;;;;;1.95;0.50;;;9.60;64.80;;;;;;5024323;28;20048;-90
2022/01/14 05:37:43;;;;;;;1.10;0.47;;;9.60;64.60;;;;;;5027724;28;20038;-89
2022/01/14 05:40:10;;;;;;;1.88;0.57;;;9.50;64.60;;;;;;5015755;28;20034;-89
2022/01/14 05:42:36;;;;;;;2.67;0.68;;;9.60;64.70;;;;;;5022694;28;20793;-89
2022/01/14 05:45:04;;;;;;;2.25;0.50;;;9.60;64.80;;;;;;5028221;28;20029;-93
2022/01/14 05:47:30;;;;;;;1.33;0.63;;;9.60;64.90;;;;;;5002085;28;20284;-91
2022/01/14 05:49:56;;;;;;;2.85;0.90;;;9.60;65.00;;;;;;5027359;28;20045;-88
2022/01/14 05:52:22;;;;;;;2.80;1.10;;;9.60;64.90;;;;;;5021561;28;20085;-91
2022/01/14 05:54:51;;;;;;;2.72;1.05;;;9.60;64.90;;;;;;5023626;28;20044;-88
2022/01/14 05:57:17;;;;;;;4.22;1.33;;;9.60;64.90;;;;;;5017590;28;20561;-88
2022/01/14 05:59:43;;;;;;;4.00;1.08;;;9.60;65.00;;;;;;5018753;28;20406;-88
2022/01/14 06:02:09;;;;;;;4.97;1.10;;;9.60;64.90;;;;;;5021684;28;20045;-90
2022/01/14 06:04:35;;;;;;;3.95;1.02;;;9.70;65.30;;;;;;5000490;28;20037;-85
2022/01/14 06:07:03;;;;;;;2.40;1.08;;;9.70;65.50;;;;;;5000819;28;20029;-90
2022/01/14 06:09:29;;;;;;;5.43;0.95;;;9.60;65.50;;;;;;5018946;28;20037;-90
2022/01/14 06:11:55;;;;;;;2.63;0.90;;;9.70;65.50;;;;;;5006394;28;20146;-85
2022/01/14 06:14:21;;;;;;;2.33;1.20;;;9.70;65.50;;;;;;5021079;28;20029;-93
2022/01/14 06:16:47;;;;;;;3.40;1.10;;;9.70;65.70;;;;;;5019941;28;20033;-92
2022/01/14 06:19:13;;;;;;;5.55;1.15;;;9.70;65.80;;;;;;5019783;28;20041;-91
2022/01/14 06:21:39;;;;;;;2.40;0.60;;;9.70;65.90;;;;;;5019355;28;20065;-89
2022/01/14 06:24:05;;;;;;;2.55;0.80;;;9.80;66.10;;;;;;5028292;28;20010;-89
2022/01/14 06:26:31;;;;;;;2.78;0.90;;;9.80;67.10;;;;;;5030380;28;20038;-84
2022/01/14 06:28:57;;;;;;;1.35;1.10;;;9.80;67.60;;;;;;5024723;28;20029;-94
2022/01/14 06:31:23;;;;;;;1.80;1.10;;;9.80;68.10;;;;;;5039347;28;20037;-87
2022/01/14 06:33:49;;;;;;;3.50;1.15;;;9.80;68.10;;;;;;5041744;28;20010;-83
2022/01/14 06:36:15;;;;;;;5.65;1.10;;;9.80;68.20;;;;;;5040553;28;21391;-85
2022/01/14 06:38:41;;;;;;;2.60;1.08;;;9.80;68.40;;;;;;5031669;28;20061;-90
2022/01/14 06:41:08;;;;;;;2.67;1.13;;;9.80;68.40;;;;;;5036021;28;20029;-92
2022/01/14 06:43:34;;;;;;;1.38;0.82;;;9.80;68.30;;;;;;5029758;28;20033;-93
2022/01/14 06:46:00;;;;;;;1.33;1.00;;;9.80;68.20;;;;;;5020586;28;20034;-93
2022/01/14 06:48:26;;;;;;;1.80;1.13;;;9.80;68.30;;;;;;5025330;28;20100;-92
2022/01/14 06:50:52;;;;;;;2.05;1.00;;;9.80;68.20;;;;;;5026098;28;20500;-93
2022/01/14 06:53:18;;;;;;;2.15;0.98;;;9.80;68.30;;;;;;5026400;28;20053;-88
2022/01/14 06:55:44;;;;;;;4.22;1.10;;;9.80;68.30;;;;;;5014860;28;20029;-86
2022/01/14 06:58:11;;;;;;;3.95;1.05;;;9.80;68.30;;;;;;5034781;28;20034;-91
2022/01/14 07:00:37;;;;;;;4.60;1.23;;;9.80;68.30;;;;;;5038002;28;20034;-87
2022/01/14 07:03:03;;;;;;;3.28;1.13;;;9.80;68.20;;;;;;5042452;28;20132;-90
2022/01/14 07:05:29;;;;;;;3.75;1.00;;;9.70;68.20;;;;;;5038136;28;20030;-91
2022/01/14 07:07:55;;;;;;;1.60;1.02;;;9.80;68.20;;;;;;5029022;28;20096;-90
2022/01/14 07:10:21;;;;;;;1.73;1.10;;;9.70;68.00;;;;;;5013515;28;20029;-92
2022/01/14 07:12:48;;;;;;;1.75;0.73;;;9.70;68.00;;;;;;5010439;28;20415;-94
2022/01/14 07:15:16;;;;;;;2.65;1.00;;;9.70;68.00;;;;;;5022891;28;20053;-93
2022/01/14 07:17:43;;;;;;;13.05;6.25;;;9.70;68.10;;;;;;5024386;28;20045;-92
2022/01/14 07:20:13;;;;;;;8.02;3.10;;;9.70;68.00;;;;;;5008218;28;20420;-93
2022/01/14 07:22:44;;;;;;;4.80;2.60;;;9.70;68.10;;;;;;5019924;28;20048;-94
2022/01/14 07:25:10;;;;;;;3.45;2.08;;;9.70;68.00;;;;;;5041367;28;20049;-92
2022/01/14 07:27:37;;;;;;;3.83;1.73;;;9.70;67.90;;;;;;5031095;28;20013;-92
2022/01/14 07:30:07;;;;;;;4.45;1.58;;;9.70;67.90;;;;;;5029020;28;20045;-93
2022/01/14 07:32:33;;;;;;;3.20;1.35;;;9.70;67.90;;;;;;5047106;28;20038;-93
2022/01/14 07:34:59;;;;;;;1.95;1.00;;;9.70;67.90;;;;;;5026925;28;20649;-93
2022/01/14 07:37:25;;;;;;;1.33;1.13;;;9.70;68.00;;;;;;5026039;28;20080;-91
2022/01/14 07:39:51;;;;;;;3.05;1.05;;;9.70;68.00;;;;;;5022137;28;20078;-87
2022/01/14 07:42:17;;;;;;;1.67;1.17;;;9.70;68.00;;;;;;5020869;28;20043;-91
2022/01/14 07:44:43;;;;;;;2.35;0.88;;;9.70;68.00;;;;;;5020313;28;20026;-95
2022/01/14 07:47:10;;;;;;;2.15;0.80;;;9.70;67.90;;;;;;5020946;28;20046;-94
2022/01/14 07:49:36;;;;;;;1.52;0.80;;;9.70;67.80;;;;;;5020200;28;20452;-88
2022/01/14 07:52:02;;;;;;;1.50;1.00;;;9.70;67.70;;;;;;5004515;28;20029;-93
2022/01/14 07:54:28;;;;;;;1.42;0.68;;;9.70;67.70;;;;;;5023752;28;20415;-93
2022/01/14 07:56:57;;;;;;;2.03;0.55;;;9.70;67.70;;;;;;5024130;28;20037;-91
2022/01/14 07:59:26;;;;;;;1.95;0.70;;;9.70;67.70;;;;;;5020202;28;20061;-93
2022/01/14 08:01:57;;;;;;;0.80;0.60;;;9.70;67.70;;;;;;5027984;28;20029;-86
2022/01/14 08:04:24;;;;;;;1.48;0.60;;;9.70;67.70;;;;;;5022135;28;20034;-90
2022/01/14 08:06:53;;;;;;;1.77;0.70;;;9.70;67.60;;;;;;5029786;28;20061;-93
2022/01/14 08:09:19;;;;;;;1.25;0.75;;;9.70;67.60;;;;;;5014752;28;20037;-90
2022/01/14 08:11:45;;;;;;;0.77;0.60;;;9.70;67.50;;;;;;5028380;28;20034;-91
2022/01/14 08:14:13;;;;;;;1.83;0.70;;;9.70;67.50;;;;;;5010206;28;20044;-90
2022/01/14 08:16:40;;;;;;;3.05;0.80;;;9.70;67.40;;;;;;5025371;28;20031;-89
2022/01/14 08:19:05;;;;;;;2.70;0.50;;;9.70;67.60;;;;;;5022550;28;20029;-87
2022/01/14 08:21:32;;;;;;;0.65;0.45;;;9.70;67.40;;;;;;5019619;28;20456;-85
2022/01/14 08:23:58;;;;;;;1.65;0.40;;;9.70;67.90;;;;;;5016207;28;20584;-89
2022/01/14 08:26:25;;;;;;;1.50;0.50;;;9.70;67.80;;;;;;5005624;28;20029;-89
2022/01/14 08:28:51;;;;;;;1.63;0.55;;;9.80;67.80;;;;;;5019544;28;20033;-90
2022/01/14 08:31:17;;;;;;;1.45;0.63;;;9.70;67.70;;;;;;5024397;28;20542;-88
2022/01/14 08:33:44;;;;;;;2.35;0.40;;;9.70;67.60;;;;;;5023666;28;20033;-87
2022/01/14 08:36:11;;;;;;;1.52;0.40;;;9.70;67.60;;;;;;5025267;28;20038;-86
2022/01/14 08:38:37;;;;;;;0.93;0.50;;;9.70;67.50;;;;;;5014708;28;20065;-86
2022/01/14 08:41:04;;;;;;;3.63;0.63;;;9.70;67.60;;;;;;5015349;28;20051;-88
2022/01/14 08:43:30;;;;;;;1.17;0.43;;;9.70;67.70;;;;;;5027465;28;20544;-87
2022/01/14 08:46:01;;;;;;;2.97;0.75;;;9.70;67.80;;;;;;4997751;28;20061;-85
2022/01/14 08:48:27;;;;;;;0.70;0.43;;;9.70;68.20;;;;;;5010257;28;20400;-90
2022/01/14 08:50:53;;;;;;;1.42;0.50;;;9.70;68.30;;;;;;5008163;28;20493;-88
2022/01/14 08:53:19;;;;;;;1.33;0.60;;;9.70;68.50;;;;;;5012164;28;20069;-87
2022/01/14 08:55:45;;;;;;;1.33;0.50;;;9.70;69.00;;;;;;5020018;28;20033;-87
2022/01/14 08:58:12;;;;;;;1.75;0.68;;;9.70;69.20;;;;;;4998920;28;20080;-87
2022/01/14 09:00:38;;;;;;;1.20;0.60;;;9.70;69.20;;;;;;5019653;28;20475;-85
2022/01/14 09:03:10;;;;;;;1.35;0.70;;;9.80;69.40;;;;;;5021141;28;20030;-90
2022/01/14 09:05:36;;;;;;;1.60;0.57;;;9.70;69.50;;;;;;5008174;28;20025;-87
2022/01/14 09:08:02;;;;;;;2.92;0.75;;;9.70;69.40;;;;;;5021076;28;20076;-90
2022/01/14 09:10:28;;;;;;;1.85;0.82;;;9.70;69.50;;;;;;5016523;28;20160;-88
2022/01/14 09:12:54;;;;;;;3.25;0.50;;;9.70;69.40;;;;;;4998138;28;20034;-88
2022/01/14 09:15:26;;;;;;;1.35;0.80;;;9.80;69.50;;;;;;5001093;28;20044;-88
2022/01/14 09:17:52;;;;;;;0.70;0.52;;;9.80;69.60;;;;;;5025075;28;20132;-85
2022/01/14 09:20:18;;;;;;;8.05;0.95;;;9.80;69.70;;;;;;5025366;28;20029;-86
2022/01/14 09:22:48;;;;;;;0.47;0.40;;;9.80;69.90;;;;;;5006542;28;20502;-88
2022/01/14 09:25:16;;;;;;;1.17;0.57;;;9.80;70.10;;;;;;5024544;28;20052;-87
2022/01/14 09:27:42;;;;;;;2.50;0.60;;;9.80;70.20;;;;;;5020886;28;20042;-89
2022/01/14 09:30:09;;;;;;;1.10;0.50;;;9.80;70.10;;;;;;5017473;28;20033;-88
2022/01/14 09:32:35;;;;;;;1.85;0.70;;;9.80;70.10;;;;;;5015004;28;20026;-88
2022/01/14 09:35:06;;;;;;;2.00;0.47;;;9.80;70.00;;;;;;4998617;28;20033;-88
2022/01/14 09:37:32;;;;;;;1.25;0.50;;;9.80;70.00;;;;;;5006903;28;20041;-86
2022/01/14 09:39:59;;;;;;;1.52;0.60;;;9.80;70.20;;;;;;5016747;28;20124;-87
2022/01/14 09:42:25;;;;;;;0.65;0.55;;;9.80;70.20;;;;;;5015774;28;20029;-88
2022/01/14 09:44:51;;;;;;;0.90;0.57;;;9.80;70.30;;;;;;4986577;28;20026;-89
2022/01/14 09:47:18;;;;;;;1.73;0.60;;;9.90;70.30;;;;;;5015883;28;20041;-88
2022/01/14 09:49:45;;;;;;;2.45;0.52;;;9.80;70.40;;;;;;5015504;28;20084;-88
2022/01/14 09:52:16;;;;;;;2.25;0.50;;;9.80;70.30;;;;;;5015884;28;20093;-89
2022/01/14 09:54:43;;;;;;;0.93;0.73;;;9.90;70.40;;;;;;5015541;28;20030;-88
2022/01/14 09:57:11;;;;;;;1.25;0.60;;;9.80;70.30;;;;;;5016535;28;20115;-87
2022/01/14 09:59:40;;;;;;;1.00;0.40;;;9.90;70.10;;;;;;5013505;28;20418;-88
2022/01/14 10:02:06;;;;;;;1.48;0.60;;;9.90;69.90;;;;;;5015609;28;20034;-87
2022/01/14 10:04:33;;;;;;;1.55;0.90;;;9.90;69.80;;;;;;5016558;28;20030;-87
2022/01/14 10:07:00;;;;;;;0.85;0.60;;;9.90;69.80;;;;;;5017331;28;20408;-88
2022/01/14 10:09:36;;;;;;;2.50;0.60;;;9.90;70.30;;;;;;5015635;28;20040;-88
2022/01/14 10:12:07;;;;;;;1.40;0.70;;;9.90;69.70;;;;;;5020425;28;20049;-88
2022/01/14 10:14:45;;;;;;;1.95;0.73;;;9.90;69.60;;;;;;5018794;28;20180;-87
2022/01/14 10:17:12;;;;;;;1.45;0.68;;;9.90;69.40;;;;;;5020296;28;20127;-87
2022/01/14 10:19:43;;;;;;;1.10;0.50;;;9.90;69.30;;;;;;5008436;28;20030;-89
2022/01/14 10:22:23;;;;;;;3.15;0.88;;;9.90;69.30;;;;;;5019856;28;20050;-88
2022/01/14 10:25:01;;;;;;;2.08;0.82;;;9.90;69.30;;;;;;4996803;28;20045;-89
2022/01/14 10:27:31;;;;;;;1.10;0.50;;;9.90;69.10;;;;;;5026091;28;20064;-88
2022/01/14 10:30:12;;;;;;;1.33;0.82;;;9.90;69.10;;;;;;5002411;28;20033;-87
2022/01/14 10:32:39;;;;;;;4.88;0.80;;;9.90;69.00;;;;;;5027073;28;20044;-87
2022/01/14 10:35:07;;;;;;;1.85;0.55;;;9.90;68.90;;;;;;5018716;28;20048;-85
2022/01/14 10:37:34;;;;;;;1.50;0.80;;;9.90;68.70;;;;;;5002130;28;20152;-87
2022/01/14 10:40:03;;;;;;;3.53;0.90;;;9.90;68.60;;;;;;5019076;28;20036;-86
2022/01/14 10:42:33;;;;;;;3.75;0.95;;;9.90;68.30;;;;;;5002311;28;20460;-87
2022/01/14 10:45:15;;;;;;;3.20;1.10;;;9.90;68.20;;;;;;4990278;28;20055;-88
2022/01/14 10:47:49;;;;;;;2.28;1.20;;;9.90;68.00;;;;;;4989750;28;20033;-87
2022/01/14 10:50:15;;;;;;;1.98;0.80;;;9.90;67.90;;;;;;5019213;28;20036;-85
2022/01/14 10:52:48;;;;;;;2.22;1.05;;;9.90;67.80;;;;;;5002220;28;20038;-88
2022/01/14 10:55:27;;;;;;;3.72;1.00;;;9.90;67.80;;;;;;5002482;28;20048;-86
2022/01/14 10:57:53;;;;;;;2.97;1.20;;;9.90;67.60;;;;;;5007710;28;20527;-84
2022/01/14 11:00:20;;;;;;;2.83;1.17;;;9.90;67.50;;;;;;5022650;28;20049;-86
2022/01/14 11:02:48;;;;;;;4.57;1.00;;;9.90;67.50;;;;;;5007251;28;20077;-89
2022/01/14 11:05:15;;;;;;;1.83;0.80;;;9.90;67.50;;;;;;5019856;28;20033;-88
2022/01/14 11:07:42;;;;;;;2.25;0.93;;;9.90;67.40;;;;;;5018930;28;20037;-88
2022/01/14 11:10:25;;;;;;;2.28;1.00;;;9.90;67.30;;;;;;5000110;28;20030;-87
2022/01/14 11:12:53;;;;;;;1.60;0.90;;;10.00;67.20;;;;;;5019062;28;20038;-88
2022/01/14 11:15:20;;;;;;;0.93;0.70;;;10.00;67.00;;;;;;5019891;28;20038;-87
2022/01/14 11:17:50;;;;;;;2.35;0.50;;;10.00;66.90;;;;;;5018080;28;20029;-90
2022/01/14 11:20:29;;;;;;;0.68;0.63;;;10.00;66.70;;;;;;5017434;28;20034;-86
2022/01/14 11:23:14;;;;;;;0.80;0.50;;;10.00;66.60;;;;;;5022536;28;20046;-87
2022/01/14 11:26:02;;;;;;;1.65;0.60;;;10.00;66.50;;;;;;5000455;28;20084;-87
2022/01/14 11:28:38;;;;;;;1.52;0.55;;;10.00;66.30;;;;;;5032217;28;20397;-86
2022/01/14 11:31:24;;;;;;;;;;;10.00;66.10;;;;;;5025405;28;20067;-85
2022/01/14 11:33:50;;;;;;;1.75;0.60;;;10.00;65.90;;;;;;5020137;28;19913;-88
2022/01/14 11:36:16;;;;;;;1.30;0.60;;;10.00;65.50;;;;;;5021696;28;20040;-87
2022/01/14 11:38:44;;;;;;;0.93;0.50;;;9.90;65.20;;;;;;5021950;28;20041;-89
2022/01/14 11:41:19;;;;;;;1.75;0.50;;;10.00;65.30;;;;;;5016928;28;20410;-87
2022/01/14 11:43:55;;;;;;;1.33;0.40;;;10.00;65.10;;;;;;5016937;28;20033;-88
2022/01/14 11:46:48;;;;;;;1.00;0.50;;;10.00;65.00;;;;;;5016392;28;20407;-87
2022/01/14 11:49:32;;;;;;;1.55;0.60;;;10.00;64.80;;;;;;5028016;28;20057;-87
2022/01/14 11:52:00;;;;;;;1.40;0.77;;;10.00;64.60;;;;;;4989531;28;20491;-87
2022/01/14 11:54:40;;;;;;;1.67;0.50;;;10.00;64.70;;;;;;5004741;28;20452;-91
2022/01/14 11:57:07;;;;;;;0.55;0.40;;;10.00;64.60;;;;;;5016849;28;20037;-89
2022/01/14 11:59:33;;;;;;;0.88;0.73;;;10.00;64.40;;;;;;5015355;28;20057;-88
2022/01/14 12:01:59;;;;;;;1.58;0.40;;;10.00;64.20;;;;;;5000973;28;20056;-88
2022/01/14 12:05:01;;;;;;;2.20;0.43;;;10.00;64.20;;;;;;5000002;28;20026;-89
2022/01/14 12:07:27;;;;;;;1.52;0.40;;;10.00;64.10;;;;;;5003978;28;20038;-87
2022/01/14 12:10:01;;;;;;;2.30;0.47;;;10.00;64.20;;;;;;5018571;28;20046;-86
2022/01/14 12:12:30;;;;;;;1.52;0.88;;;9.90;64.10;;;;;;5021525;28;20065;-89
2022/01/14 12:14:58;;;;;;;1.50;0.60;;;10.00;64.10;;;;;;5013467;28;20029;-87
2022/01/14 12:17:41;;;;;;;3.15;0.70;;;10.00;64.00;;;;;;5006614;28;20037;-91
2022/01/14 12:20:16;;;;;;;1.50;0.63;;;9.90;64.00;;;;;;5005310;28;20030;-90
2022/01/14 12:23:03;;;;;;;1.83;0.60;;;9.90;64.00;;;;;;5015572;28;20079;-90
2022/01/14 12:25:44;;;;;;;3.10;0.57;;;9.90;63.70;;;;;;4997063;28;20032;-88
2022/01/14 12:28:23;;;;;;;1.70;0.47;;;9.90;63.60;;;;;;5007908;28;20029;-91
2022/01/14 12:31:01;;;;;;;2.30;0.45;;;9.90;63.60;;;;;;5008540;28;20045;-90
2022/01/14 12:33:49;;;;;;;2.67;0.70;;;9.90;63.50;;;;;;5026448;28;20045;-89
2022/01/14 12:36:23;;;;;;;0.73;0.40;;;10.00;63.70;;;;;;5008177;28;20036;-86
2022/01/14 12:38:49;;;;;;;1.42;0.50;;;9.90;63.60;;;;;;5022551;28;20056;-86
2022/01/14 12:41:24;;;;;;;3.40;0.55;;;9.90;63.90;;;;;;5034614;28;20525;-89
2022/01/14 12:43:52;;;;;;;2.00;0.50;;;9.90;64.20;;;;;;5015250;28;20026;-88
2022/01/14 12:46:35;;;;;;;0.80;0.60;;;9.90;64.10;;;;;;5008962;28;20088;-89
2022/01/14 12:49:10;;;;;;;1.85;0.57;;;9.90;64.20;;;;;;5019320;28;20030;-88
2022/01/14 12:51:37;;;;;;;;;;;10.00;64.30;;;;;;5015496;28;20041;-88
2022/01/14 12:54:05;;;;;;;1.63;0.82;;;10.00;64.40;;;;;;5011404;28;19935;-88
2022/01/14 12:56:32;;;;;;;2.05;0.70;;;10.00;64.10;;;;;;5024309;28;20065;-86
2022/01/14 12:59:13;;;;;;;2.88;0.70;;;10.00;63.90;;;;;;5023720;28;20040;-91
2022/01/14 13:01:42;;;;;;;1.38;0.50;;;10.00;64.00;;;;;;5007226;28;20093;-90
2022/01/14 13:04:16;;;;;;;1.80;0.60;;;10.00;64.00;;;;;;5021208;28;20094;-89
2022/01/14 13:06:48;;;;;;;1.33;0.60;;;10.00;63.70;;;;;;5012821;28;20088;-87
2022/01/14 13:09:19;;;;;;;1.63;0.60;;;9.90;63.50;;;;;;5009897;28;20029;-86
2022/01/14 13:11:53;;;;;;;1.60;0.73;;;9.90;63.40;;;;;;5004625;28;20030;-88
2022/01/14 13:14:26;;;;;;;0.68;0.50;;;9.90;63.30;;;;;;5023143;28;20073;-90
2022/01/14 13:16:54;;;;;;;3.30;0.70;;;9.90;63.20;;;;;;5002450;28;20092;-84
2022/01/14 13:19:41;;;;;;;1.10;0.60;;;9.90;63.10;;;;;;5019120;28;20033;-86
2022/01/14 13:22:12;;;;;;;1.67;0.50;;;9.90;63.20;;;;;;4994154;28;20069;-86
2022/01/14 13:24:41;;;;;;;1.27;0.57;;;9.90;63.30;;;;;;5009578;28;20088;-86
2022/01/14 13:27:07;;;;;;;0.93;0.40;;;9.90;63.10;;;;;;5010547;28;20044;-86
2022/01/14 13:29:49;;;;;;;0.85;0.60;;;9.90;63.10;;;;;;5006527;28;20037;-86